Forside
METAR-TAF:

METAR-TAF

Lufthavne :

Richard B. Helgeson Airport

Two Harbors, Minnesota, USA

Breddekreds: 47-03N, længdekreds: 091-45W, højde: 328 m

Aktuelle vejr

Denne rapport blev lavet for 18 minutter siden, kl. 03:32 UTC
Vind 15 kt fra øst
Temperatur -6°C
Fugtighed 79%
Tryk 1019 hPa
Sigt: 0.8 km
Overskyet i en højde af 200 ft
sne

METAR: KTWM 180332Z AUTO 08015KT 1/2SM SN OVC002 M06/M09 A3010 RMK AO2

Tid: 21:50 (03:50 UTC)


TAF: fraværende

Vejrobservationer og prognoser fra mere end 4000 lufthavne (METAR og TAF).

De gule og røde prikker repræsenterer de meteorologiske stationer.

Flyt musen over at se navnet på stationen.

Så klik over at se vejr observationer og prognoser.

At skifte det kort: Klik på de grønne knapper med et sort kors for at zoome ind; på den grønne knap med en bindestreg for at zoome ud; eller på de grønne pile for tilstødende kort.


METAR-TAF: